20°C Temp
13°C Dewpoint
% Humidity
Temperature
23 KM/H
14 MPH
12 KTS
210°
South South
West

Wind Speed
Partly Cloudy
Conditions
Pressure 1018.92 (hPa) - 30.09 (in)
Visibility 6.2 (mi) - 10.0 (km)

Current Conditions
EHDL
Location 30(km)
Metar :EHDL 161155Z AUTO 21012KT 150V250 9999 FEW031 SCT058 BKN065 20/13 Q1019 BLU
Sun 16th June 13:55 pm

Airport
  Metar Aviation API Data Provided by https://www.checkwx.com/ PHP scripts by weather34.com ©2019